createdAt,value
2023-06-10T00:02:23.383Z,5.97
2023-06-10T00:04:50.393Z,6.70
2023-06-10T00:07:18.480Z,5.70
2023-06-10T00:09:45.292Z,6.10
2023-06-10T00:12:13.030Z,6.63
2023-06-10T00:14:44.146Z,6.43
2023-06-10T00:17:11.211Z,6.03
2023-06-10T00:19:40.005Z,6.07
2023-06-10T00:22:06.763Z,6.57
2023-06-10T00:24:33.452Z,6.03
2023-06-10T00:27:00.374Z,6.40
2023-06-10T00:29:27.077Z,6.60
2023-06-10T00:31:58.581Z,5.97
2023-06-10T00:34:26.407Z,6.13
2023-06-10T00:36:53.284Z,6.03
2023-06-10T00:39:20.044Z,6.30
2023-06-10T00:41:46.871Z,6.30
2023-06-10T00:44:13.823Z,6.87
2023-06-10T00:46:41.083Z,6.07
2023-06-10T00:49:08.003Z,6.37
2023-06-10T00:51:36.119Z,6.63
2023-06-10T00:54:03.447Z,6.33
2023-06-10T00:56:30.240Z,6.00
2023-06-10T00:58:57.392Z,6.10
2023-06-10T01:01:25.048Z,6.03
2023-06-10T01:03:51.899Z,6.90
2023-06-10T01:06:30.493Z,6.50
2023-06-10T01:09:06.919Z,5.70
2023-06-10T01:11:47.967Z,6.40
2023-06-10T01:14:18.055Z,6.27
2023-06-10T01:16:46.901Z,6.23
2023-06-10T01:19:18.873Z,6.10
2023-06-10T01:21:49.878Z,6.20
2023-06-10T01:24:19.513Z,5.93
2023-06-10T01:26:49.548Z,5.87
2023-06-10T01:29:20.202Z,6.03
2023-06-10T01:31:58.645Z,5.53
2023-06-10T01:34:27.336Z,6.00
2023-06-10T01:36:56.253Z,6.23
2023-06-10T01:39:25.606Z,5.60
2023-06-10T01:41:53.883Z,5.90
2023-06-10T01:44:22.558Z,5.70
2023-06-10T01:46:49.687Z,5.97
2023-06-10T01:49:16.686Z,6.20
2023-06-10T01:51:43.446Z,6.33
2023-06-10T01:54:10.628Z,6.50
2023-06-10T01:56:37.344Z,6.20
2023-06-10T01:59:04.057Z,5.70
2023-06-10T02:01:31.201Z,6.20
2023-06-10T02:03:58.106Z,5.73
2023-06-10T02:06:25.054Z,5.80
2023-06-10T02:08:51.918Z,6.23
2023-06-10T02:11:18.737Z,6.33
2023-06-10T02:13:45.559Z,6.50
2023-06-10T02:16:13.674Z,6.43
2023-06-10T02:18:44.365Z,6.07
2023-06-10T02:21:11.839Z,6.60
2023-06-10T02:23:38.836Z,5.70
2023-06-10T02:26:05.706Z,6.20
2023-06-10T02:28:32.649Z,5.40
2023-06-10T02:31:00.509Z,5.33
2023-06-10T02:33:28.524Z,5.73
2023-06-10T02:35:57.373Z,5.80
2023-06-10T02:38:24.229Z,5.33
2023-06-10T02:40:51.070Z,5.30
2023-06-10T02:43:17.986Z,5.10
2023-06-10T02:45:45.008Z,6.17
2023-06-10T02:48:11.950Z,5.40
2023-06-10T02:50:41.274Z,5.37
2023-06-10T02:53:08.303Z,4.93
2023-06-10T02:55:36.519Z,5.40
2023-06-10T02:58:04.433Z,5.07
2023-06-10T03:00:32.110Z,5.10
2023-06-10T03:02:59.617Z,5.10
2023-06-10T03:05:26.616Z,5.50
2023-06-10T03:07:53.560Z,5.23
2023-06-10T03:10:20.583Z,5.00
2023-06-10T03:12:47.444Z,5.30
2023-06-10T03:15:14.452Z,4.93
2023-06-10T03:17:41.610Z,5.13
2023-06-10T03:20:11.784Z,5.60
2023-06-10T03:22:39.425Z,5.37
2023-06-10T03:25:07.390Z,5.53
2023-06-10T03:27:36.492Z,5.13
2023-06-10T03:30:04.017Z,6.00
2023-06-10T03:32:30.944Z,5.37
2023-06-10T03:34:58.489Z,5.60
2023-06-10T03:37:28.546Z,5.63
2023-06-10T03:39:55.636Z,5.10
2023-06-10T03:42:22.806Z,5.90
2023-06-10T03:44:50.047Z,6.10
2023-06-10T03:47:17.442Z,6.10
2023-06-10T03:49:45.052Z,6.00
2023-06-10T03:52:14.529Z,5.87
2023-06-10T03:54:42.401Z,5.90
2023-06-10T03:57:12.373Z,5.80
2023-06-10T03:59:39.530Z,5.10
2023-06-10T04:02:08.149Z,6.03
2023-06-10T04:04:35.924Z,5.70
2023-06-10T04:07:03.263Z,5.30
2023-06-10T04:09:30.317Z,6.23
2023-06-10T04:11:57.622Z,6.43
2023-06-10T04:14:25.372Z,5.97
2023-06-10T04:16:52.794Z,5.97
2023-06-10T04:19:20.263Z,6.00
2023-06-10T04:21:47.350Z,6.17
2023-06-10T04:24:14.270Z,5.97
2023-06-10T04:26:41.230Z,5.63
2023-06-10T04:29:12.273Z,5.90
2023-06-10T04:31:39.362Z,5.90
2023-06-10T04:34:06.154Z,6.40
2023-06-10T04:36:33.323Z,6.10
2023-06-10T04:39:00.417Z,6.60
2023-06-10T04:41:28.487Z,6.23
2023-06-10T04:43:55.494Z,6.50
2023-06-10T04:46:22.727Z,5.67
2023-06-10T04:48:49.884Z,6.57
2023-06-10T04:51:17.901Z,6.03
2023-06-10T04:53:45.176Z,6.47
2023-06-10T04:56:12.283Z,6.33
2023-06-10T04:58:39.430Z,6.33
2023-06-10T05:01:06.374Z,6.60
2023-06-10T05:03:33.452Z,6.90
2023-06-10T05:06:00.563Z,6.53
2023-06-10T05:08:27.834Z,6.43
2023-06-10T05:10:54.832Z,6.30
2023-06-10T05:13:21.816Z,6.60
2023-06-10T05:15:49.610Z,5.90
2023-06-10T05:18:16.941Z,6.10
2023-06-10T05:20:44.014Z,6.97
2023-06-10T05:23:11.092Z,5.80
2023-06-10T05:25:38.767Z,5.67
2023-06-10T05:28:05.741Z,6.60
2023-06-10T05:30:32.712Z,5.80
2023-06-10T05:32:59.817Z,6.13
2023-06-10T05:35:26.796Z,5.70
2023-06-10T05:37:53.785Z,6.37
2023-06-10T05:40:20.927Z,6.03
2023-06-10T05:42:47.921Z,5.67
2023-06-10T05:45:14.783Z,6.03
2023-06-10T05:47:41.886Z,5.87
2023-06-10T05:50:09.899Z,5.47
2023-06-10T05:52:38.698Z,5.67
2023-06-10T05:55:06.228Z,6.37
2023-06-10T05:57:33.080Z,6.03
2023-06-10T05:59:59.865Z,5.67
2023-06-10T06:02:27.311Z,6.10
2023-06-10T06:04:54.189Z,6.47
2023-06-10T06:07:22.018Z,5.87
2023-06-10T06:09:49.802Z,6.40
2023-06-10T06:12:16.654Z,6.30
2023-06-10T06:14:43.468Z,6.43
2023-06-10T06:17:10.200Z,6.53
2023-06-10T06:19:39.764Z,6.70
2023-06-10T06:22:06.562Z,6.10
2023-06-10T06:24:33.613Z,6.30
2023-06-10T06:27:00.815Z,5.87
2023-06-10T06:29:27.666Z,6.53
2023-06-10T06:31:54.982Z,6.70
2023-06-10T06:34:21.979Z,6.30
2023-06-10T06:36:48.871Z,6.03
2023-06-10T06:39:15.727Z,6.97
2023-06-10T06:41:42.895Z,6.57
2023-06-10T06:44:09.654Z,6.27
2023-06-10T06:46:36.435Z,6.40
2023-06-10T06:49:03.183Z,6.23
2023-06-10T06:51:30.049Z,6.53
2023-06-10T06:54:00.109Z,6.60
2023-06-10T06:56:29.385Z,6.77
2023-06-10T06:58:57.976Z,6.80
2023-06-10T07:01:25.429Z,7.47
2023-06-10T07:03:52.272Z,7.73
2023-06-10T07:06:19.107Z,7.43
2023-06-10T07:08:45.850Z,7.83
2023-06-10T07:11:12.850Z,7.53
2023-06-10T07:13:39.771Z,8.23
2023-06-10T07:16:06.582Z,7.83
2023-06-10T07:18:33.517Z,7.87
2023-06-10T07:21:00.397Z,7.60
2023-06-10T07:23:27.312Z,7.67
2023-06-10T07:25:54.159Z,7.70
2023-06-10T07:28:21.137Z,7.70
2023-06-10T07:30:47.891Z,7.50
2023-06-10T07:33:14.661Z,6.90
2023-06-10T07:35:44.124Z,7.17
2023-06-10T07:38:10.944Z,7.40
2023-06-10T07:40:37.751Z,7.57
2023-06-10T07:43:04.589Z,7.97
2023-06-10T07:45:31.603Z,8.00
2023-06-10T07:47:58.390Z,7.77
2023-06-10T07:50:25.208Z,7.53
2023-06-10T07:52:52.045Z,7.70
2023-06-10T07:55:19.029Z,7.37
2023-06-10T07:57:46.016Z,7.33
2023-06-10T08:00:13.238Z,7.87
2023-06-10T08:02:40.679Z,6.87
2023-06-10T08:05:08.386Z,7.47
2023-06-10T08:07:35.553Z,7.07
2023-06-10T08:10:03.465Z,7.47
2023-06-10T08:12:30.793Z,7.20
2023-06-10T08:14:57.796Z,7.43
2023-06-10T08:17:25.358Z,6.37
2023-06-10T08:19:52.174Z,7.23
2023-06-10T08:22:19.477Z,6.33
2023-06-10T08:24:49.071Z,7.67
2023-06-10T08:27:16.438Z,7.00
2023-06-10T08:29:43.310Z,7.23
2023-06-10T08:32:10.400Z,6.77
2023-06-10T08:34:37.291Z,6.40
2023-06-10T08:37:05.082Z,7.07
2023-06-10T08:39:33.365Z,7.00
2023-06-10T08:42:36.655Z,7.23
2023-06-10T08:45:04.306Z,6.20
2023-06-10T08:47:36.562Z,6.00
2023-06-10T08:50:05.576Z,6.33
2023-06-10T08:52:41.076Z,6.87
2023-06-10T08:55:29.024Z,6.17
2023-06-10T08:57:57.573Z,5.53
2023-06-10T09:00:25.003Z,6.30
2023-06-10T09:02:52.786Z,6.30
2023-06-10T09:05:20.996Z,6.45
2023-06-10T09:07:49.404Z,5.60
2023-06-10T09:10:16.386Z,5.85
2023-06-10T09:12:43.226Z,5.80
2023-06-10T09:15:10.827Z,5.82
2023-06-10T09:17:38.099Z,5.57
2023-06-10T09:20:06.345Z,5.57
2023-06-10T09:22:34.501Z,5.97
2023-06-10T09:25:07.011Z,5.80
2023-06-10T09:27:34.153Z,5.93
2023-06-10T09:30:01.103Z,5.93
2023-06-10T09:32:28.540Z,5.80
2023-06-10T09:34:55.410Z,5.50
2023-06-10T09:37:23.710Z,5.25
2023-06-10T09:40:05.678Z,5.30
2023-06-10T09:42:39.339Z,5.85
2023-06-10T09:45:08.418Z,5.35
2023-06-10T09:47:35.899Z,4.93
2023-06-10T09:50:03.113Z,5.72
2023-06-10T09:52:30.712Z,5.00
2023-06-10T09:55:03.800Z,5.47
2023-06-10T09:57:37.389Z,5.85
2023-06-10T10:00:12.566Z,4.75
2023-06-10T10:02:53.509Z,4.50
2023-06-10T10:05:22.849Z,5.18
2023-06-10T10:07:50.341Z,5.03
2023-06-10T10:10:19.169Z,5.00
2023-06-10T10:12:49.323Z,4.88
2023-06-10T10:15:18.831Z,5.38
2023-06-10T10:18:06.030Z,5.53
2023-06-10T10:20:35.502Z,5.22
2023-06-10T10:23:06.066Z,4.97
2023-06-10T10:25:39.240Z,4.88
2023-06-10T10:28:13.088Z,4.63
2023-06-10T10:30:46.091Z,5.13
2023-06-10T10:33:15.902Z,5.38
2023-06-10T10:35:44.420Z,4.93
2023-06-10T10:38:11.433Z,5.20
2023-06-10T10:40:39.307Z,4.88
2023-06-10T10:43:07.251Z,5.22
2023-06-10T10:45:35.819Z,4.68
2023-06-10T10:48:10.271Z,4.97
2023-06-10T10:50:37.177Z,5.22
2023-06-10T10:53:05.039Z,5.15
2023-06-10T10:55:32.406Z,4.53
2023-06-10T10:58:03.605Z,4.80
2023-06-10T11:00:45.598Z,4.35
2023-06-10T11:03:19.042Z,4.43
2023-06-10T11:05:51.152Z,4.07
2023-06-10T11:08:30.318Z,4.43
2023-06-10T11:10:57.282Z,3.78
2023-06-10T11:13:26.992Z,4.03
2023-06-10T11:15:58.854Z,3.50
2023-06-10T11:18:30.591Z,3.92
2023-06-10T11:21:05.927Z,3.88
2023-06-10T11:23:39.470Z,3.88
2023-06-10T11:26:20.589Z,3.70
2023-06-10T11:28:47.277Z,4.10
2023-06-10T11:31:24.695Z,3.85
2023-06-10T11:33:55.085Z,3.88
2023-06-10T11:36:22.620Z,4.22
2023-06-10T11:38:49.778Z,3.92
2023-06-10T11:41:18.504Z,4.43
2023-06-10T11:43:46.774Z,3.97
2023-06-10T11:46:15.434Z,4.28
2023-06-10T11:49:01.574Z,4.53
2023-06-10T11:51:30.421Z,4.28
2023-06-10T11:53:57.517Z,4.25
2023-06-10T11:56:26.690Z,4.32
2023-06-10T11:58:58.697Z,4.28
2023-06-10T12:01:29.741Z,5.25
2023-06-10T12:04:06.939Z,4.60
2023-06-10T12:06:44.529Z,4.75
2023-06-10T12:09:25.077Z,5.15
2023-06-10T12:12:05.180Z,4.60
2023-06-10T12:15:07.103Z,5.18
2023-06-10T12:17:35.347Z,4.63
2023-06-10T12:20:04.792Z,4.88
2023-06-10T12:22:44.273Z,4.90
2023-06-10T12:25:12.753Z,4.47
2023-06-10T12:27:42.071Z,4.93
2023-06-10T12:30:09.232Z,4.80
2023-06-10T12:32:47.453Z,5.05
2023-06-10T12:35:19.068Z,4.85
2023-06-10T12:38:08.044Z,4.70
2023-06-10T12:40:37.343Z,5.35
2023-06-10T12:43:04.554Z,5.13
2023-06-10T12:45:33.739Z,4.80
2023-06-10T12:48:12.273Z,5.07
2023-06-10T12:50:41.371Z,4.80
2023-06-10T12:53:08.889Z,4.93
2023-06-10T12:55:36.099Z,4.63
2023-06-10T12:58:03.054Z,4.45
2023-06-10T13:00:31.323Z,4.60
2023-06-10T13:03:01.979Z,4.72
2023-06-10T13:05:29.844Z,4.90
2023-06-10T13:07:56.641Z,4.28
2023-06-10T13:10:26.043Z,4.68
2023-06-10T13:12:55.386Z,5.28
2023-06-10T13:15:22.154Z,4.82
2023-06-10T13:17:50.580Z,4.65
2023-06-10T13:20:18.441Z,4.95
2023-06-10T13:22:45.165Z,4.85
2023-06-10T13:25:12.824Z,4.72
2023-06-10T13:27:40.237Z,4.60
2023-06-10T13:30:08.330Z,4.97
2023-06-10T13:32:35.196Z,5.43
2023-06-10T13:35:05.002Z,4.85
2023-06-10T13:37:32.135Z,5.50
2023-06-10T13:39:58.943Z,4.93
2023-06-10T13:42:27.694Z,5.47
2023-06-10T13:44:54.532Z,5.45
2023-06-10T13:47:22.093Z,5.03
2023-06-10T13:49:49.031Z,4.97
2023-06-10T13:52:15.855Z,4.80
2023-06-10T13:54:42.601Z,5.30
2023-06-10T13:57:11.282Z,4.80
2023-06-10T13:59:38.549Z,5.40
2023-06-10T14:02:05.785Z,5.55
2023-06-10T14:04:32.591Z,5.72
2023-06-10T14:06:59.424Z,5.60
2023-06-10T14:09:26.170Z,5.03
2023-06-10T14:11:53.150Z,5.70
2023-06-10T14:14:20.632Z,5.43
2023-06-10T14:16:47.517Z,5.97
2023-06-10T14:19:14.742Z,5.68
2023-06-10T14:21:41.435Z,5.68
2023-06-10T14:24:08.316Z,5.38
2023-06-10T14:26:35.073Z,5.47
2023-06-10T14:29:03.549Z,5.88
2023-06-10T14:31:30.387Z,5.70
2023-06-10T14:33:57.144Z,5.75
2023-06-10T14:36:23.896Z,5.72
2023-06-10T14:38:51.145Z,5.68
2023-06-10T14:41:17.930Z,5.80
2023-06-10T14:43:44.724Z,6.15
2023-06-10T14:46:11.458Z,6.40
2023-06-10T14:48:38.302Z,5.93
2023-06-10T14:51:05.080Z,6.00
2023-06-10T14:53:31.934Z,5.90
2023-06-10T14:55:58.777Z,5.75
2023-06-10T14:58:25.463Z,6.05
2023-06-10T15:00:52.498Z,5.60
2023-06-10T15:03:19.483Z,6.35
2023-06-10T15:05:46.369Z,6.65
2023-06-10T15:08:13.325Z,6.63
2023-06-10T15:10:40.075Z,5.57
2023-06-10T15:13:06.946Z,6.40
2023-06-10T15:15:33.784Z,5.97
2023-06-10T15:18:00.596Z,6.97
2023-06-10T15:20:27.713Z,6.43
2023-06-10T15:22:55.001Z,6.00
2023-06-10T15:25:30.529Z,6.13
2023-06-10T15:27:58.511Z,6.25
2023-06-10T15:30:25.340Z,6.18
2023-06-10T15:32:52.334Z,6.60
2023-06-10T15:35:19.293Z,6.55
2023-06-10T15:37:46.314Z,6.68
2023-06-10T15:40:13.182Z,6.80
2023-06-10T15:42:41.512Z,6.30
2023-06-10T15:45:10.550Z,6.07
2023-06-10T15:47:40.728Z,6.65
2023-06-10T15:50:10.015Z,6.20
2023-06-10T15:52:38.110Z,6.03
2023-06-10T15:55:08.144Z,6.90
2023-06-10T15:57:38.373Z,6.97
2023-06-10T16:00:08.320Z,6.43
2023-06-10T16:02:37.614Z,6.32
2023-06-10T16:05:06.034Z,5.85
2023-06-10T16:07:34.046Z,6.30
2023-06-10T16:10:05.639Z,6.30
2023-06-10T16:12:34.958Z,6.63
2023-06-10T16:15:02.594Z,6.43
2023-06-10T16:17:29.384Z,5.53
2023-06-10T16:19:56.101Z,5.85
2023-06-10T16:22:22.873Z,6.28
2023-06-10T16:24:49.637Z,6.05
2023-06-10T16:27:16.479Z,5.88
2023-06-10T16:29:43.306Z,6.25
2023-06-10T16:32:10.080Z,5.55
2023-06-10T16:34:36.854Z,5.93
2023-06-10T16:37:04.022Z,6.07
2023-06-10T16:39:30.787Z,6.05
2023-06-10T16:41:57.681Z,5.63
2023-06-10T16:44:24.653Z,5.85
2023-06-10T16:46:52.483Z,6.00
2023-06-10T16:49:19.536Z,6.07
2023-06-10T16:51:47.208Z,5.50
2023-06-10T16:54:14.514Z,5.50
2023-06-10T16:56:41.509Z,5.43
2023-06-10T16:59:08.770Z,5.75
2023-06-10T17:01:35.678Z,5.40
2023-06-10T17:04:02.627Z,5.97
2023-06-10T17:06:29.637Z,5.45
2023-06-10T17:08:56.644Z,5.35
2023-06-10T17:11:23.543Z,5.88
2023-06-10T17:13:50.762Z,5.68
2023-06-10T17:16:17.923Z,5.03
2023-06-10T17:18:44.930Z,5.55
2023-06-10T17:21:11.801Z,5.68
2023-06-10T17:23:38.778Z,5.32
2023-06-10T17:26:05.754Z,5.50
2023-06-10T17:28:32.545Z,5.57
2023-06-10T17:30:59.540Z,5.25
2023-06-10T17:33:26.553Z,5.28
2023-06-10T17:35:53.492Z,5.40
2023-06-10T17:38:22.868Z,5.68
2023-06-10T17:40:50.004Z,5.47
2023-06-10T17:43:17.005Z,5.60
2023-06-10T17:45:43.934Z,5.22
2023-06-10T17:48:11.397Z,5.22
2023-06-10T17:50:38.384Z,5.53
2023-06-10T17:53:05.238Z,5.72
2023-06-10T17:55:32.768Z,5.78
2023-06-10T17:57:59.828Z,5.53
2023-06-10T18:00:27.209Z,5.68
2023-06-10T18:02:54.444Z,5.50
2023-06-10T18:05:22.190Z,5.78
2023-06-10T18:07:49.250Z,5.78
2023-06-10T18:10:16.094Z,5.82
2023-06-10T18:12:43.541Z,5.38
2023-06-10T18:15:11.099Z,6.03
2023-06-10T18:17:38.301Z,6.15
2023-06-10T18:20:06.179Z,6.22
2023-06-10T18:22:33.207Z,5.80
2023-06-10T18:25:02.497Z,6.15
2023-06-10T18:27:29.340Z,6.10
2023-06-10T18:29:56.179Z,5.80
2023-06-10T18:32:23.116Z,5.75
2023-06-10T18:34:53.119Z,6.00
2023-06-10T18:37:20.881Z,5.80
2023-06-10T18:39:47.989Z,6.15
2023-06-10T18:42:15.349Z,5.88
2023-06-10T18:44:42.842Z,5.93
2023-06-10T18:47:09.768Z,5.78
2023-06-10T18:49:37.038Z,5.97
2023-06-10T18:52:05.113Z,5.80
2023-06-10T18:54:32.264Z,5.93
2023-06-10T18:56:59.364Z,5.35
2023-06-10T18:59:26.649Z,5.80
2023-06-10T19:01:53.790Z,5.35
2023-06-10T19:04:20.954Z,5.72
2023-06-10T19:06:49.762Z,5.70
2023-06-10T19:09:16.873Z,5.07
2023-06-10T19:11:43.725Z,6.00
2023-06-10T19:14:11.441Z,5.35
2023-06-10T19:16:38.481Z,5.57
2023-06-10T19:19:06.072Z,5.40
2023-06-10T19:21:33.842Z,5.65
2023-06-10T19:24:01.295Z,5.40
2023-06-10T19:26:28.437Z,5.45
2023-06-10T19:28:55.435Z,5.38
2023-06-10T19:31:22.600Z,5.90
2023-06-10T19:33:49.696Z,5.57
2023-06-10T19:36:17.679Z,5.55
2023-06-10T19:38:44.888Z,6.03
2023-06-10T19:41:12.333Z,5.78
2023-06-10T19:43:39.328Z,5.68
2023-06-10T19:46:06.332Z,5.68
2023-06-10T19:48:33.735Z,5.40
2023-06-10T19:51:00.771Z,6.30
2023-06-10T19:53:28.055Z,6.45
2023-06-10T19:55:55.187Z,6.13
2023-06-10T19:58:22.132Z,5.80
2023-06-10T20:00:49.550Z,6.30
2023-06-10T20:03:16.665Z,5.70
2023-06-10T20:05:43.964Z,5.83
2023-06-10T20:08:11.162Z,5.43
2023-06-10T20:10:38.357Z,6.15
2023-06-10T20:13:05.492Z,6.07
2023-06-10T20:15:32.352Z,5.97
2023-06-10T20:17:59.370Z,5.97
2023-06-10T20:20:26.523Z,5.95
2023-06-10T20:22:53.454Z,6.27
2023-06-10T20:25:20.514Z,6.30
2023-06-10T20:27:47.473Z,6.67
2023-06-10T20:30:15.098Z,6.13
2023-06-10T20:32:41.925Z,6.07
2023-06-10T20:35:09.365Z,5.67
2023-06-10T20:37:36.379Z,6.60
2023-06-10T20:40:04.670Z,6.33
2023-06-10T20:42:31.647Z,6.03
2023-06-10T20:44:59.407Z,6.10
2023-06-10T20:47:26.322Z,5.87
2023-06-10T20:49:53.176Z,6.00
2023-06-10T20:52:20.197Z,6.27
2023-06-10T20:54:46.962Z,6.70
2023-06-10T20:57:13.699Z,6.37
2023-06-10T20:59:40.472Z,6.30
2023-06-10T21:02:07.670Z,6.30
2023-06-10T21:04:34.660Z,6.40
2023-06-10T21:07:01.456Z,6.20
2023-06-10T21:09:28.283Z,6.33
2023-06-10T21:11:55.006Z,6.17
2023-06-10T21:14:21.946Z,6.47
2023-06-10T21:16:48.821Z,6.93
2023-06-10T21:19:15.702Z,6.53
2023-06-10T21:21:42.524Z,5.93
2023-06-10T21:24:09.360Z,6.27
2023-06-10T21:26:36.368Z,6.90
2023-06-10T21:29:04.018Z,6.60
2023-06-10T21:31:31.733Z,6.40
2023-06-10T21:33:58.821Z,6.60
2023-06-10T21:36:25.681Z,6.47
2023-06-10T21:38:52.534Z,6.60
2023-06-10T21:41:19.363Z,5.97
2023-06-10T21:43:46.141Z,6.10
2023-06-10T21:46:12.917Z,6.30
2023-06-10T21:48:39.790Z,5.70
2023-06-10T21:51:06.665Z,5.90
2023-06-10T21:53:33.419Z,5.80
2023-06-10T21:56:00.200Z,5.83
2023-06-10T21:58:26.900Z,5.90
2023-06-10T22:00:53.717Z,6.03
2023-06-10T22:03:20.875Z,5.67
2023-06-10T22:05:47.853Z,5.70
2023-06-10T22:08:14.907Z,6.67
2023-06-10T22:10:41.898Z,6.80
2023-06-10T22:13:09.447Z,6.13
2023-06-10T22:15:36.364Z,6.13
2023-06-10T22:18:06.768Z,5.93
2023-06-10T22:20:33.994Z,6.23
2023-06-10T22:23:00.725Z,6.10
2023-06-10T22:25:27.486Z,6.00
2023-06-10T22:27:54.324Z,6.50
2023-06-10T22:30:21.116Z,6.23
2023-06-10T22:32:48.035Z,6.70
2023-06-10T22:35:14.805Z,5.80
2023-06-10T22:37:41.698Z,6.27
2023-06-10T22:40:09.173Z,6.17
2023-06-10T22:42:36.336Z,6.77
2023-06-10T22:45:03.681Z,7.17
2023-06-10T22:47:30.564Z,6.63
2023-06-10T22:49:57.309Z,6.63
2023-06-10T22:52:24.007Z,6.63
2023-06-10T22:54:50.751Z,6.60
2023-06-10T22:57:17.538Z,6.40
2023-06-10T22:59:44.343Z,6.70
2023-06-10T23:02:11.319Z,6.73
2023-06-10T23:04:38.209Z,6.60
2023-06-10T23:07:05.531Z,7.50
2023-06-10T23:09:32.504Z,6.97
2023-06-10T23:11:59.348Z,6.87
2023-06-10T23:14:26.094Z,7.17
2023-06-10T23:16:52.933Z,6.90
2023-06-10T23:19:20.174Z,7.20
2023-06-10T23:21:54.597Z,7.60
2023-06-10T23:24:32.471Z,7.03
2023-06-10T23:27:02.357Z,7.70
2023-06-10T23:29:29.775Z,8.00
2023-06-10T23:31:56.862Z,8.73
2023-06-10T23:34:24.124Z,8.57
2023-06-10T23:36:53.454Z,8.87
2023-06-10T23:39:20.544Z,8.63
2023-06-10T23:41:47.367Z,8.83
2023-06-10T23:44:14.445Z,9.30
2023-06-10T23:46:41.322Z,8.40
2023-06-10T23:49:10.239Z,8.87
2023-06-10T23:51:38.600Z,8.40
2023-06-10T23:54:06.614Z,8.60
2023-06-10T23:56:33.793Z,8.50
2023-06-10T23:59:01.034Z,8.63
